Mizuho — JD2038 — position and weather

sailwx.info

Track history (hours):
 
Tides and Currents Weather Stations Pressure Air Temp Water Temp Dewpoint Dewpoint Depression Visibility Wind Speed Wind Dir Waves Ship Positions

Mizuho

Last reported at 2017-Dec-11 17:00 UTC. Time now 2017-Dec-11 19:15 UTC.
Position N 35°36' E 140°07'.

Length 32 m; draft 3.9 m.

Type: Tug. MMSI: 431000205.

Date/timePositionNaut miles runAvg speedWind from/ knotsBaromVisibWave heightAir tempDewpointWater temp
2017-Dec-11 17:00N 35°36' E 140°07'0 0.0
2017-Dec-11 16:31N 35°36' E 140°07'0 0.0
2017-Dec-11 16:01N 35°36' E 140°07'0 0.0
2017-Dec-11 15:31N 35°36' E 140°07'0 0.0
2017-Dec-11 15:00N 35°36' E 140°07'0 0.0
2017-Dec-11 14:30N 35°36' E 140°07'0 0.0
2017-Dec-11 14:01N 35°36' E 140°07'0 0.0
2017-Dec-11 13:31N 35°36' E 140°07'0 0.0
2017-Dec-11 13:01N 35°36' E 140°07'0 0.0
2017-Dec-11 12:31N 35°36' E 140°07'0 0.0
2017-Dec-11 12:01N 35°36' E 140°07'0 0.0
2017-Dec-11 11:30N 35°36' E 140°07'0 0.0
2017-Dec-11 11:01N 35°36' E 140°07'0 0.0
2017-Dec-11 10:30N 35°36' E 140°07'0 0.0
2017-Dec-11 10:01N 35°36' E 140°07'0 0.0
2017-Dec-11 09:31N 35°36' E 140°07'0 0.0
2017-Dec-11 09:01N 35°36' E 140°07'0 0.0
2017-Dec-11 08:31N 35°36' E 140°07'0 0.0
2017-Dec-11 08:01N 35°36' E 140°07'1 2.7
2017-Dec-11 07:30N 35°35' E 140°05'510.0
2017-Dec-11 07:00N 35°31' E 140°02'0 0.2
2017-Dec-11 06:30N 35°31' E 140°02'2 4.2
2017-Dec-11 06:00N 35°33' E 140°03'1 2.5
2017-Dec-11 05:30N 35°34' E 140°05'0 0.0
2017-Dec-11 05:00N 35°34' E 140°05'0 0.0
2017-Dec-11 04:30N 35°34' E 140°05'0 0.1
2017-Dec-11 04:00N 35°34' E 140°05'0 0.0
2017-Dec-11 03:30N 35°34' E 140°05'0 0.0
2017-Dec-11 03:00N 35°34' E 140°05'0 0.0
2017-Dec-11 02:30N 35°34' E 140°05'3 6.5
2017-Dec-11 02:00N 35°31' E 140°02'3 5.6
2017-Dec-11 01:29N 35°28' E 140°01'2 3.5
2017-Dec-11 00:59N 35°30' E 139°59'2 4.3
2017-Dec-11 00:30N 35°31' E 140°01'4 8.8
2017-Dec-11 00:00N 35°35' E 140°04'2 4.9
2017-Dec-10 23:30N 35°36' E 140°07'0 0.0
2017-Dec-10 23:00N 35°36' E 140°07'0 0.0
2017-Dec-10 22:30N 35°36' E 140°07'0 0.0
2017-Dec-10 22:00N 35°36' E 140°07'0 0.0
2017-Dec-10 21:30N 35°36' E 140°07'0 0.0
2017-Dec-10 21:00N 35°36' E 140°07'0 0.0
2017-Dec-10 20:30N 35°36' E 140°07'0 0.0
2017-Dec-10 20:00N 35°36' E 140°07'0 0.0
2017-Dec-10 19:30N 35°36' E 140°07'0 0.0
2017-Dec-10 19:00N 35°36' E 140°07'0 0.0
2017-Dec-10 18:30N 35°36' E 140°07'0 0.0
2017-Dec-10 18:00N 35°36' E 140°07'0 0.0
2017-Dec-10 17:30N 35°36' E 140°07'0 0.0
2017-Dec-10 17:00N 35°36' E 140°07'0 0.0
2017-Dec-10 16:30N 35°36' E 140°07'0 0.0
2017-Dec-10 16:00N 35°36' E 140°07'0 0.0
2017-Dec-10 15:30N 35°36' E 140°07'0 0.0
2017-Dec-10 15:00N 35°36' E 140°07'0 0.0
2017-Dec-10 14:30N 35°36' E 140°07'0 0.0
2017-Dec-10 14:00N 35°36' E 140°07'0 0.0
2017-Dec-10 13:30N 35°36' E 140°07'0 0.0
2017-Dec-10 13:00N 35°36' E 140°07'0 0.0
2017-Dec-10 12:30N 35°36' E 140°07'0 0.0
2017-Dec-10 12:00N 35°36' E 140°07'0 0.0
2017-Dec-10 11:30N 35°36' E 140°07'0 0.0
2017-Dec-10 11:00N 35°36' E 140°07'0 0.0
2017-Dec-10 10:30N 35°36' E 140°07'0 0.0
2017-Dec-10 10:00N 35°36' E 140°07'0 0.0
2017-Dec-10 09:30N 35°36' E 140°07'0 0.0
2017-Dec-10 09:00N 35°36' E 140°07'0 0.0
2017-Dec-10 08:30N 35°36' E 140°07'0 0.0
2017-Dec-10 08:00N 35°36' E 140°07'0 0.0
2017-Dec-10 07:30N 35°36' E 140°07'0 0.0
2017-Dec-10 07:00N 35°36' E 140°07'0 0.0
2017-Dec-10 06:30N 35°36' E 140°07'0 0.0
2017-Dec-10 06:00N 35°36' E 140°07'0 0.0
2017-Dec-10 05:30N 35°36' E 140°07'0 0.0
2017-Dec-10 05:01N 35°36' E 140°07'0 0.0
2017-Dec-10 04:30N 35°36' E 140°07'4 8.8
2017-Dec-10 04:00N 35°33' E 140°03'611.3
2017-Dec-10 03:30N 35°29' E 139°58'0 0.2
2017-Dec-10 02:52N 35°28' E 139°58'0 0.1
2017-Dec-10 02:26N 35°28' E 139°58'1 2.8
2017-Dec-10 01:57N 35°30' E 139°57'1 2.6
2017-Dec-10 01:30N 35°30' E 139°56'0 0.2
2017-Dec-10 01:00N 35°30' E 139°56'3 6.8
2017-Dec-10 00:30N 35°32' E 139°59'612.3
2017-Dec-10 00:00N 35°35' E 140°05'1 2.4
2017-Dec-09 23:29N 35°36' E 140°07'0 0.0
2017-Dec-09 22:55N 35°36' E 140°07'0 0.0
2017-Dec-09 22:17N 35°36' E 140°07'0 0.0
2017-Dec-09 22:00N 35°36' E 140°07'0 0.0
2017-Dec-09 21:30N 35°36' E 140°07'0 0.0
2017-Dec-09 20:51N 35°36' E 140°07'0 0.0
2017-Dec-09 20:30N 35°36' E 140°07'0 0.0
2017-Dec-09 20:00N 35°36' E 140°07'0 0.0
2017-Dec-09 19:30N 35°36' E 140°07'0 0.0
2017-Dec-09 19:00N 35°36' E 140°07'0 0.0
2017-Dec-09 18:30N 35°36' E 140°07'0 0.0
2017-Dec-09 18:00N 35°36' E 140°07'0 0.0
2017-Dec-09 17:30N 35°36' E 140°07'0 0.0
2017-Dec-09 17:00N 35°36' E 140°07'0 0.0
2017-Dec-09 16:30N 35°36' E 140°07'0 0.0
2017-Dec-09 16:00N 35°36' E 140°07'0 0.0
2017-Dec-09 15:30N 35°36' E 140°07'0 0.0
2017-Dec-09 15:00N 35°36' E 140°07'0 0.0
2017-Dec-09 14:30N 35°36' E 140°07'0 0.0
2017-Dec-09 14:00N 35°36' E 140°07'0 0.0
2017-Dec-09 13:30N 35°36' E 140°07'0 0.0
2017-Dec-09 13:00N 35°36' E 140°07'0 0.0
2017-Dec-09 12:30N 35°36' E 140°07'0 0.0
2017-Dec-09 12:00N 35°36' E 140°07'0 0.0
2017-Dec-09 11:30N 35°36' E 140°07'0 0.0
2017-Dec-09 11:00N 35°36' E 140°07'0 0.0
2017-Dec-09 10:30N 35°36' E 140°07'0 0.0
2017-Dec-09 10:00N 35°36' E 140°07'0 0.0
2017-Dec-09 09:30N 35°36' E 140°07'0 0.0
2017-Dec-09 09:00N 35°36' E 140°07'0 0.0
2017-Dec-09 08:30N 35°36' E 140°07'0 0.0
2017-Dec-09 08:00N 35°36' E 140°07'0 0.0
2017-Dec-09 07:30N 35°36' E 140°07'0 0.0
2017-Dec-09 07:00N 35°36' E 140°07'0 0.0
2017-Dec-09 06:30N 35°36' E 140°07'0 0.0
2017-Dec-09 06:00N 35°36' E 140°07'0 0.0
2017-Dec-09 05:30N 35°36' E 140°07'0 0.0
2017-Dec-09 05:00N 35°36' E 140°07'0 0.0
2017-Dec-09 04:30N 35°36' E 140°07'0 0.0
2017-Dec-09 04:00N 35°36' E 140°07'0 0.0
2017-Dec-09 03:30N 35°36' E 140°07'0 0.0
2017-Dec-09 02:59N 35°36' E 140°07'0 0.0
2017-Dec-09 02:30N 35°36' E 140°07'0 0.0
2017-Dec-09 02:00N 35°36' E 140°07'5 9.5
2017-Dec-09 01:30N 35°32' E 140°03'1 1.0
2017-Dec-09 01:00N 35°32' E 140°03'0 0.9
2017-Dec-09 00:30N 35°32' E 140°03'0 0.0
2017-Dec-09 00:00N 35°32' E 140°03'0 0.0
2017-Dec-08 23:31N 35°32' E 140°03'1 1.4
2017-Dec-08 22:59N 35°32' E 140°03'0 0.1
2017-Dec-08 22:29N 35°32' E 140°03'1 1.2
2017-Dec-08 22:00N 35°32' E 140°03'0 0.0
2017-Dec-08 21:30N 35°32' E 140°03'0 0.0
2017-Dec-08 21:00N 35°32' E 140°03'0 0.0
2017-Dec-08 20:30N 35°32' E 140°03'0 0.0
2017-Dec-08 20:01N 35°32' E 140°03'0 0.0
2017-Dec-08 19:31N 35°32' E 140°03'4 7.7
2017-Dec-08 19:01N 35°35' E 140°06'0 0.5
2017-Dec-08 18:30N 35°36' E 140°05'1 2.4
2017-Dec-08 18:01N 35°36' E 140°07'0 0.0
2017-Dec-08 17:30N 35°36' E 140°07'0 0.0
2017-Dec-08 17:00N 35°36' E 140°07'0 0.0
2017-Dec-08 16:30N 35°36' E 140°07'0 0.0
2017-Dec-08 16:00N 35°36' E 140°07'0 0.0
2017-Dec-08 15:30N 35°36' E 140°07'0 0.0
2017-Dec-08 15:00N 35°36' E 140°07'0 0.0
2017-Dec-08 14:31N 35°36' E 140°07'0 0.0
2017-Dec-08 14:00N 35°36' E 140°07'0 0.0
2017-Dec-08 13:30N 35°36' E 140°07'0 0.0
2017-Dec-08 13:00N 35°36' E 140°07'0 0.0
2017-Dec-08 12:30N 35°36' E 140°07'0 0.0
2017-Dec-08 12:00N 35°36' E 140°07'0 0.0
2017-Dec-08 11:30N 35°36' E 140°07'0 0.0
2017-Dec-08 11:00N 35°36' E 140°07'1 2.0
2017-Dec-08 10:31N 35°36' E 140°06'0 0.8
2017-Dec-08 10:00N 35°36' E 140°05'3 6.6
2017-Dec-08 09:30N 35°34' E 140°02'4 2.8
2017-Dec-08 08:05N 35°32' E 139°58'0 0.0
2017-Dec-08 07:56N 35°32' E 139°58'511.0
2017-Dec-08 07:30N 35°34' E 140°02'4 7.9
2017-Dec-08 07:00N 35°36' E 140°07'0 0.0
2017-Dec-08 06:30N 35°36' E 140°07'0 0.0
2017-Dec-08 06:00N 35°36' E 140°07'0 0.0
2017-Dec-08 05:30N 35°36' E 140°07'0 0.0
2017-Dec-08 05:00N 35°36' E 140°07'0 0.0
2017-Dec-08 04:30N 35°36' E 140°07'0 0.0
2017-Dec-08 04:00N 35°36' E 140°07'0 0.0
2017-Dec-08 03:30N 35°36' E 140°07'0 0.0
2017-Dec-08 03:00N 35°36' E 140°07'0 0.0
2017-Dec-08 02:30N 35°36' E 140°07'0 0.0
2017-Dec-08 02:00N 35°36' E 140°07'0 0.0
2017-Dec-08 01:30N 35°36' E 140°07'0 0.0
2017-Dec-08 01:00N 35°36' E 140°07'0 0.0
2017-Dec-08 00:30N 35°36' E 140°07'0 0.0
2017-Dec-08 00:00N 35°36' E 140°07'1 1.9
2017-Dec-07 23:30N 35°35' E 140°06'0 0.1
2017-Dec-07 23:00N 35°35' E 140°06'0 0.7
2017-Dec-07 22:30N 35°35' E 140°06'2 4.8
2017-Dec-07 22:00N 35°35' E 140°03'1 1.6
2017-Dec-07 21:30N 35°35' E 140°03'0 0.1
2017-Dec-07 21:00N 35°35' E 140°03'0 0.0
2017-Dec-07 20:30N 35°35' E 140°03'0 0.0
2017-Dec-07 20:00N 35°35' E 140°03'3 6.8
2017-Dec-07 19:30N 35°36' E 140°07'0 0.5
2017-Dec-07 19:01N 35°36' E 140°07'0 0.0
2017-Dec-07 18:30N 35°36' E 140°07'0 0.0
2017-Dec-07 18:01N 35°36' E 140°07'0 0.0
2017-Dec-07 17:31N 35°36' E 140°07'0 0.0
2017-Dec-07 17:01N 35°36' E 140°07'0 0.0
2017-Dec-07 16:31N 35°36' E 140°07'0 0.0
2017-Dec-07 16:01N 35°36' E 140°07'0 0.0
2017-Dec-07 15:31N 35°36' E 140°07'0 0.0
2017-Dec-07 15:01N 35°36' E 140°07'0 0.0
2017-Dec-07 14:31N 35°36' E 140°07'0 0.0
2017-Dec-07 14:01N 35°36' E 140°07'0 0.0
2017-Dec-07 13:30N 35°36' E 140°07'0 0.0
2017-Dec-07 13:00N 35°36' E 140°07'0 0.0
2017-Dec-07 12:30N 35°36' E 140°07'0 0.0
2017-Dec-07 12:00N 35°36' E 140°07'0 0.0
2017-Dec-07 11:30N 35°36' E 140°07'0 0.0
2017-Dec-07 11:00N 35°36' E 140°07'0 0.0
2017-Dec-07 10:30N 35°36' E 140°07'0 0.0
2017-Dec-07 10:01N 35°36' E 140°07'0 0.0
2017-Dec-07 09:31N 35°36' E 140°07'0 0.0
2017-Dec-07 09:01N 35°36' E 140°07'0 0.0
2017-Dec-07 08:31N 35°36' E 140°07'0 0.0
2017-Dec-07 08:01N 35°36' E 140°07'0 0.0
2017-Dec-07 07:30N 35°36' E 140°07'3 5.2
2017-Dec-07 07:01N 35°35' E 140°04'713.0
2017-Dec-07 06:30N 35°30' E 139°59'2 3.9
2017-Dec-07 06:00N 35°28' E 139°58'0 0.3
2017-Dec-07 05:30N 35°28' E 139°58'1 2.3
2017-Dec-07 05:00N 35°29' E 139°57'0 0.6
2017-Dec-07 04:30N 35°29' E 139°57'0 0.0
2017-Dec-07 04:00N 35°29' E 139°57'0 0.0
2017-Dec-07 03:30N 35°29' E 139°57'0 0.0
2017-Dec-07 03:00N 35°29' E 139°57'0 0.0
2017-Dec-07 02:30N 35°29' E 139°57'0 0.0
2017-Dec-07 02:00N 35°29' E 139°57'0 0.0
2017-Dec-07 01:30N 35°29' E 139°57'0 0.0
2017-Dec-07 01:00N 35°29' E 139°57'4 5.7
2017-Dec-07 00:22N 35°30' E 140°01'0 0.1
2017-Dec-06 23:58N 35°30' E 140°01'0 1.1
2017-Dec-06 23:30N 35°30' E 140°01'1 2.0
2017-Dec-06 22:59N 35°31' E 140°00'0 0.3
2017-Dec-06 22:30N 35°31' E 140°00'0 0.0
2017-Dec-06 22:00N 35°31' E 140°00'0 0.1
2017-Dec-06 21:30N 35°31' E 140°00'611.3
2017-Dec-06 21:00N 35°35' E 140°04'  
2017-Dec-04 10:31N 35°36' E 140°07'0 0.0
2017-Dec-04 10:01N 35°36' E 140°07'0 0.0
2017-Dec-04 09:30N 35°36' E 140°07'0 0.0
2017-Dec-04 09:01N 35°36' E 140°07'0 0.0
2017-Dec-04 08:30N 35°36' E 140°07'0 0.0
2017-Dec-04 08:01N 35°36' E 140°07'3 6.5
2017-Dec-04 07:30N 35°34' E 140°04'5 9.0
2017-Dec-04 07:00N 35°30' E 140°02'0 0.0
2017-Dec-04 06:28N 35°30' E 140°02'0 0.0
2017-Dec-04 05:58N 35°30' E 140°02'0 0.5
2017-Dec-04 05:30N 35°30' E 140°01'2 3.5
2017-Dec-04 05:00N 35°31' E 139°60'3 6.8
2017-Dec-04 04:30N 35°34' E 139°57'0 0.2
2017-Dec-04 04:00N 35°34' E 139°57'3 5.5
2017-Dec-04 03:30N 35°35' E 140°00'611.0
2017-Dec-04 03:01N 35°36' E 140°07'0 0.1
2017-Dec-04 02:31N 35°36' E 140°07'0 0.0
2017-Dec-04 02:00N 35°36' E 140°07'0 0.0
2017-Dec-04 01:31N 35°36' E 140°07'0 0.0
2017-Dec-04 01:00N 35°36' E 140°07'0 0.0
2017-Dec-04 00:31N 35°36' E 140°07'0 0.0
2017-Dec-04 00:00N 35°36' E 140°07'0 0.0
2017-Dec-03 23:30N 35°36' E 140°07'0 0.2
2017-Dec-03 23:01N 35°36' E 140°07'1 2.1
2017-Dec-03 22:30N 35°36' E 140°06'1 2.7
2017-Dec-03 22:00N 35°35' E 140°04'0 0.9
2017-Dec-03 21:30N 35°36' E 140°04'0 0.0
2017-Dec-03 21:00N 35°36' E 140°04'0 0.0
2017-Dec-03 20:30N 35°36' E 140°04'2 4.4
2017-Dec-03 20:00N 35°36' E 140°06'1 1.0
2017-Dec-03 19:30N 35°36' E 140°07'0 0.0
2017-Dec-03 19:01N 35°36' E 140°07'0 0.0
2017-Dec-03 18:31N 35°36' E 140°07'0 0.0
2017-Dec-03 18:00N 35°36' E 140°07'0 0.0
2017-Dec-03 17:31N 35°36' E 140°07'0 0.0
2017-Dec-03 17:00N 35°36' E 140°07'0 0.0
2017-Dec-03 16:30N 35°36' E 140°07'0 0.0
2017-Dec-03 16:00N 35°36' E 140°07'0 0.0
2017-Dec-03 15:31N 35°36' E 140°07'0 0.0
2017-Dec-03 15:00N 35°36' E 140°07'0 0.0
2017-Dec-03 14:31N 35°36' E 140°07'0 0.0
2017-Dec-03 14:00N 35°36' E 140°07'0 0.0
2017-Dec-03 13:30N 35°36' E 140°07'0 0.0
2017-Dec-03 13:01N 35°36' E 140°07'0 0.0
2017-Dec-03 12:30N 35°36' E 140°07'0 0.0
2017-Dec-03 12:01N 35°36' E 140°07'0 0.0
2017-Dec-03 11:27N 35°36' E 140°07'0 0.0
2017-Dec-03 11:00N 35°36' E 140°07'0 0.0
2017-Dec-03 10:30N 35°36' E 140°07'0 0.0
2017-Dec-03 10:01N 35°36' E 140°07'0 0.0
2017-Dec-03 09:31N 35°36' E 140°07'0 0.0
2017-Dec-03 09:01N 35°36' E 140°07'0 0.0
2017-Dec-03 08:30N 35°36' E 140°07'0 0.0
2017-Dec-03 08:01N 35°36' E 140°07'0 0.0
2017-Dec-03 07:31N 35°36' E 140°07'0 0.0
2017-Dec-03 07:00N 35°36' E 140°07'0 0.0
2017-Dec-03 06:31N 35°36' E 140°07'0 0.0
2017-Dec-03 06:00N 35°36' E 140°07'4 8.4
2017-Dec-03 05:31N 35°33' E 140°03'4 6.9
2017-Dec-03 04:59N 35°30' E 140°01'0 0.0
2017-Dec-03 04:30N 35°30' E 140°01'0 0.2
2017-Dec-03 04:00N 35°30' E 140°01'1 2.2
2017-Dec-03 03:30N 35°31' E 140°00'4 6.5
2017-Dec-03 02:58N 35°33' E 139°57'3 3.6
2017-Dec-03 02:01N 35°35' E 140°00'011.9
2017-Dec-03 02:00N 35°35' E 140°01'510.4
2017-Dec-03 01:30N 35°36' E 140°07'0 0.0
2017-Dec-03 01:00N 35°36' E 140°07'0 0.0
2017-Dec-03 00:30N 35°36' E 140°07'0 0.0
2017-Dec-03 00:00N 35°36' E 140°07'0 0.0
2017-Dec-02 23:30N 35°36' E 140°07'0 0.0
2017-Dec-02 23:00N 35°36' E 140°07'0 0.0
2017-Dec-02 22:30N 35°36' E 140°07'0 0.0
2017-Dec-02 22:00N 35°36' E 140°07'0 0.0
2017-Dec-02 21:30N 35°36' E 140°07'0 0.0
2017-Dec-02 21:00N 35°36' E 140°07'0 0.0
2017-Dec-02 20:30N 35°36' E 140°07'0 0.0
2017-Dec-02 20:00N 35°36' E 140°07'0 0.0
2017-Dec-02 19:30N 35°36' E 140°07'0 0.0
2017-Dec-02 19:00N 35°36' E 140°07'0 0.0
2017-Dec-02 18:30N 35°36' E 140°07'0 0.0
2017-Dec-02 18:00N 35°36' E 140°07'0 0.0
2017-Dec-02 17:30N 35°36' E 140°07'0 0.0
2017-Dec-02 17:00N 35°36' E 140°07'0 0.0
2017-Dec-02 16:31N 35°36' E 140°07'0 0.0
2017-Dec-02 16:01N 35°36' E 140°07'0 0.0
2017-Dec-02 15:30N 35°36' E 140°07'0 0.0
2017-Dec-02 15:00N 35°36' E 140°07'0 0.0
2017-Dec-02 14:30N 35°36' E 140°07'0 0.0
2017-Dec-02 14:01N 35°36' E 140°07'0 0.0
2017-Dec-02 13:30N 35°36' E 140°07'0 0.0
2017-Dec-02 13:00N 35°36' E 140°07'0 0.0
2017-Dec-02 12:31N 35°36' E 140°07'0 0.0
2017-Dec-02 12:00N 35°36' E 140°07'0 0.0
2017-Dec-02 11:30N 35°36' E 140°07'0 0.0
2017-Dec-02 11:01N 35°36' E 140°07'0 0.2
2017-Dec-02 10:30N 35°36' E 140°07'1 2.2
2017-Dec-02 10:00N 35°36' E 140°06'1 1.6
2017-Dec-02 09:30N 35°35' E 140°05'4 8.3
2017-Dec-02 09:00N 35°33' E 140°00'3 6.2
2017-Dec-02 08:30N 35°31' E 139°57'0 0.0
2017-Dec-02 07:59N 35°31' E 139°57'0 0.9
2017-Dec-02 07:30N 35°32' E 139°58'611.1
2017-Dec-02 07:00N 35°33' E 140°04'1 2.2
2017-Dec-02 06:28N 35°32' E 140°05'3 6.0
2017-Dec-02 06:00N 35°32' E 140°02'2 3.8
2017-Dec-02 05:25N 35°30' E 140°02'1 1.3
2017-Dec-02 04:58N 35°30' E 140°01'1 2.2
2017-Dec-02 04:30N 35°31' E 140°00'3 5.3
2017-Dec-02 04:00N 35°33' E 140°02'5 9.1
2017-Dec-02 03:30N 35°36' E 140°07'0 0.2
2017-Dec-02 03:00N 35°36' E 140°07'0 0.0
2017-Dec-02 02:30N 35°36' E 140°07'0 0.0
2017-Dec-02 02:00N 35°36' E 140°07'0 0.0
2017-Dec-02 01:30N 35°36' E 140°07'0 0.0
2017-Dec-02 01:00N 35°36' E 140°07'0 0.0
2017-Dec-02 00:30N 35°36' E 140°07'0 0.0
2017-Dec-02 00:00N 35°36' E 140°07'0 0.5
2017-Dec-01 23:30N 35°36' E 140°07'0 0.9
2017-Dec-01 23:00N 35°35' E 140°06'3 5.0
2017-Dec-01 22:30N 35°35' E 140°03'3 5.2
2017-Dec-01 22:00N 35°34' E 140°00'1 2.2
2017-Dec-01 21:30N 35°35' E 140°02'5 9.3
2017-Dec-01 21:01N 35°36' E 140°07'0 0.2
2017-Dec-01 20:30N 35°36' E 140°07'0 0.0
2017-Dec-01 20:01N 35°36' E 140°07'0 0.0
2017-Dec-01 19:30N 35°36' E 140°07'0 0.0
2017-Dec-01 19:00N 35°36' E 140°07'0 0.0
2017-Dec-01 18:30N 35°36' E 140°07'0 0.0
2017-Dec-01 18:00N 35°36' E 140°07'0 0.0
2017-Dec-01 17:30N 35°36' E 140°07'0 0.0
2017-Dec-01 17:01N 35°36' E 140°07'  
Track history (hours):
 
Tides and Currents Weather Stations Pressure Air Temp Water Temp Dewpoint Dewpoint Depression Visibility Wind Speed Wind Dir Waves Ship Positions

Mizuho

Last reported at 2017-Dec-11 17:00 UTC. Time now 2017-Dec-11 19:15 UTC.
Position N 35°36' E 140°07'.

Length 32 m; draft 3.9 m.

Type: Tug. MMSI: 431000205.

Date/timePositionNaut miles runAvg speedWind from/ knotsBaromVisibWave heightAir tempDewpointWater temp
2017-Dec-11 17:00N 35°36' E 140°07'0 0.0
2017-Dec-11 16:31N 35°36' E 140°07'0 0.0
2017-Dec-11 16:01N 35°36' E 140°07'0 0.0
2017-Dec-11 15:31N 35°36' E 140°07'0 0.0
2017-Dec-11 15:00N 35°36' E 140°07'0 0.0
2017-Dec-11 14:30N 35°36' E 140°07'0 0.0
2017-Dec-11 14:01N 35°36' E 140°07'0 0.0
2017-Dec-11 13:31N 35°36' E 140°07'0 0.0
2017-Dec-11 13:01N 35°36' E 140°07'0 0.0
2017-Dec-11 12:31N 35°36' E 140°07'0 0.0
2017-Dec-11 12:01N 35°36' E 140°07'0 0.0
2017-Dec-11 11:30N 35°36' E 140°07'0 0.0
2017-Dec-11 11:01N 35°36' E 140°07'0 0.0
2017-Dec-11 10:30N 35°36' E 140°07'0 0.0
2017-Dec-11 10:01N 35°36' E 140°07'0 0.0
2017-Dec-11 09:31N 35°36' E 140°07'0 0.0
2017-Dec-11 09:01N 35°36' E 140°07'0 0.0
2017-Dec-11 08:31N 35°36' E 140°07'0 0.0
2017-Dec-11 08:01N 35°36' E 140°07'1 2.7
2017-Dec-11 07:30N 35°35' E 140°05'510.0
2017-Dec-11 07:00N 35°31' E 140°02'0 0.2
2017-Dec-11 06:30N 35°31' E 140°02'2 4.2
2017-Dec-11 06:00N 35°33' E 140°03'1 2.5
2017-Dec-11 05:30N 35°34' E 140°05'0 0.0
2017-Dec-11 05:00N 35°34' E 140°05'0 0.0
2017-Dec-11 04:30N 35°34' E 140°05'0 0.1
2017-Dec-11 04:00N 35°34' E 140°05'0 0.0
2017-Dec-11 03:30N 35°34' E 140°05'0 0.0
2017-Dec-11 03:00N 35°34' E 140°05'0 0.0
2017-Dec-11 02:30N 35°34' E 140°05'3 6.5
2017-Dec-11 02:00N 35°31' E 140°02'3 5.6
2017-Dec-11 01:29N 35°28' E 140°01'2 3.5
2017-Dec-11 00:59N 35°30' E 139°59'2 4.3
2017-Dec-11 00:30N 35°31' E 140°01'4 8.8
2017-Dec-11 00:00N 35°35' E 140°04'2 4.9
2017-Dec-10 23:30N 35°36' E 140°07'0 0.0
2017-Dec-10 23:00N 35°36' E 140°07'0 0.0
2017-Dec-10 22:30N 35°36' E 140°07'0 0.0
2017-Dec-10 22:00N 35°36' E 140°07'0 0.0
2017-Dec-10 21:30N 35°36' E 140°07'0 0.0
2017-Dec-10 21:00N 35°36' E 140°07'0 0.0
2017-Dec-10 20:30N 35°36' E 140°07'0 0.0
2017-Dec-10 20:00N 35°36' E 140°07'0 0.0
2017-Dec-10 19:30N 35°36' E 140°07'0 0.0
2017-Dec-10 19:00N 35°36' E 140°07'0 0.0
2017-Dec-10 18:30N 35°36' E 140°07'0 0.0
2017-Dec-10 18:00N 35°36' E 140°07'0 0.0
2017-Dec-10 17:30N 35°36' E 140°07'0 0.0
2017-Dec-10 17:00N 35°36' E 140°07'0 0.0
2017-Dec-10 16:30N 35°36' E 140°07'0 0.0
2017-Dec-10 16:00N 35°36' E 140°07'0 0.0
2017-Dec-10 15:30N 35°36' E 140°07'0 0.0
2017-Dec-10 15:00N 35°36' E 140°07'0 0.0
2017-Dec-10 14:30N 35°36' E 140°07'0 0.0
2017-Dec-10 14:00N 35°36' E 140°07'0 0.0
2017-Dec-10 13:30N 35°36' E 140°07'0 0.0
2017-Dec-10 13:00N 35°36' E 140°07'0 0.0
2017-Dec-10 12:30N 35°36' E 140°07'0 0.0
2017-Dec-10 12:00N 35°36' E 140°07'0 0.0
2017-Dec-10 11:30N 35°36' E 140°07'0 0.0
2017-Dec-10 11:00N 35°36' E 140°07'0 0.0
2017-Dec-10 10:30N 35°36' E 140°07'0 0.0
2017-Dec-10 10:00N 35°36' E 140°07'0 0.0
2017-Dec-10 09:30N 35°36' E 140°07'0 0.0
2017-Dec-10 09:00N 35°36' E 140°07'0 0.0
2017-Dec-10 08:30N 35°36' E 140°07'0 0.0
2017-Dec-10 08:00N 35°36' E 140°07'0 0.0
2017-Dec-10 07:30N 35°36' E 140°07'0 0.0
2017-Dec-10 07:00N 35°36' E 140°07'0 0.0
2017-Dec-10 06:30N 35°36' E 140°07'0 0.0
2017-Dec-10 06:00N 35°36' E 140°07'0 0.0
2017-Dec-10 05:30N 35°36' E 140°07'0 0.0
2017-Dec-10 05:01N 35°36' E 140°07'0 0.0
2017-Dec-10 04:30N 35°36' E 140°07'4 8.8
2017-Dec-10 04:00N 35°33' E 140°03'611.3
2017-Dec-10 03:30N 35°29' E 139°58'0 0.2
2017-Dec-10 02:52N 35°28' E 139°58'0 0.1
2017-Dec-10 02:26N 35°28' E 139°58'1 2.8
2017-Dec-10 01:57N 35°30' E 139°57'1 2.6
2017-Dec-10 01:30N 35°30' E 139°56'0 0.2
2017-Dec-10 01:00N 35°30' E 139°56'3 6.8
2017-Dec-10 00:30N 35°32' E 139°59'612.3
2017-Dec-10 00:00N 35°35' E 140°05'1 2.4
2017-Dec-09 23:29N 35°36' E 140°07'0 0.0
2017-Dec-09 22:55N 35°36' E 140°07'0 0.0
2017-Dec-09 22:17N 35°36' E 140°07'0 0.0
2017-Dec-09 22:00N 35°36' E 140°07'0 0.0
2017-Dec-09 21:30N 35°36' E 140°07'0 0.0
2017-Dec-09 20:51N 35°36' E 140°07'0 0.0
2017-Dec-09 20:30N 35°36' E 140°07'0 0.0
2017-Dec-09 20:00N 35°36' E 140°07'0 0.0
2017-Dec-09 19:30N 35°36' E 140°07'0 0.0
2017-Dec-09 19:00N 35°36' E 140°07'0 0.0
2017-Dec-09 18:30N 35°36' E 140°07'0 0.0
2017-Dec-09 18:00N 35°36' E 140°07'0 0.0
2017-Dec-09 17:30N 35°36' E 140°07'0 0.0
2017-Dec-09 17:00N 35°36' E 140°07'0 0.0
2017-Dec-09 16:30N 35°36' E 140°07'0 0.0
2017-Dec-09 16:00N 35°36' E 140°07'0 0.0
2017-Dec-09 15:30N 35°36' E 140°07'0 0.0
2017-Dec-09 15:00N 35°36' E 140°07'0 0.0
2017-Dec-09 14:30N 35°36' E 140°07'0 0.0
2017-Dec-09 14:00N 35°36' E 140°07'0 0.0
2017-Dec-09 13:30N 35°36' E 140°07'0 0.0
2017-Dec-09 13:00N 35°36' E 140°07'0 0.0
2017-Dec-09 12:30N 35°36' E 140°07'0 0.0
2017-Dec-09 12:00N 35°36' E 140°07'0 0.0
2017-Dec-09 11:30N 35°36' E 140°07'0 0.0
2017-Dec-09 11:00N 35°36' E 140°07'0 0.0
2017-Dec-09 10:30N 35°36' E 140°07'0 0.0
2017-Dec-09 10:00N 35°36' E 140°07'0 0.0
2017-Dec-09 09:30N 35°36' E 140°07'0 0.0
2017-Dec-09 09:00N 35°36' E 140°07'0 0.0
2017-Dec-09 08:30N 35°36' E 140°07'0 0.0
2017-Dec-09 08:00N 35°36' E 140°07'0 0.0
2017-Dec-09 07:30N 35°36' E 140°07'0 0.0
2017-Dec-09 07:00N 35°36' E 140°07'0 0.0
2017-Dec-09 06:30N 35°36' E 140°07'0 0.0
2017-Dec-09 06:00N 35°36' E 140°07'0 0.0
2017-Dec-09 05:30N 35°36' E 140°07'0 0.0
2017-Dec-09 05:00N 35°36' E 140°07'0 0.0
2017-Dec-09 04:30N 35°36' E 140°07'0 0.0
2017-Dec-09 04:00N 35°36' E 140°07'0 0.0
2017-Dec-09 03:30N 35°36' E 140°07'0 0.0
2017-Dec-09 02:59N 35°36' E 140°07'0 0.0
2017-Dec-09 02:30N 35°36' E 140°07'0 0.0
2017-Dec-09 02:00N 35°36' E 140°07'5 9.5
2017-Dec-09 01:30N 35°32' E 140°03'1 1.0
2017-Dec-09 01:00N 35°32' E 140°03'0 0.9
2017-Dec-09 00:30N 35°32' E 140°03'0 0.0
2017-Dec-09 00:00N 35°32' E 140°03'0 0.0
2017-Dec-08 23:31N 35°32' E 140°03'1 1.4
2017-Dec-08 22:59N 35°32' E 140°03'0 0.1
2017-Dec-08 22:29N 35°32' E 140°03'1 1.2
2017-Dec-08 22:00N 35°32' E 140°03'0 0.0
2017-Dec-08 21:30N 35°32' E 140°03'0 0.0
2017-Dec-08 21:00N 35°32' E 140°03'0 0.0
2017-Dec-08 20:30N 35°32' E 140°03'0 0.0
2017-Dec-08 20:01N 35°32' E 140°03'0 0.0
2017-Dec-08 19:31N 35°32' E 140°03'4 7.7
2017-Dec-08 19:01N 35°35' E 140°06'0 0.5
2017-Dec-08 18:30N 35°36' E 140°05'1 2.4
2017-Dec-08 18:01N 35°36' E 140°07'0 0.0
2017-Dec-08 17:30N 35°36' E 140°07'0 0.0
2017-Dec-08 17:00N 35°36' E 140°07'0 0.0
2017-Dec-08 16:30N 35°36' E 140°07'0 0.0
2017-Dec-08 16:00N 35°36' E 140°07'0 0.0
2017-Dec-08 15:30N 35°36' E 140°07'0 0.0
2017-Dec-08 15:00N 35°36' E 140°07'0 0.0
2017-Dec-08 14:31N 35°36' E 140°07'0 0.0
2017-Dec-08 14:00N 35°36' E 140°07'0 0.0
2017-Dec-08 13:30N 35°36' E 140°07'0 0.0
2017-Dec-08 13:00N 35°36' E 140°07'0 0.0
2017-Dec-08 12:30N 35°36' E 140°07'0 0.0
2017-Dec-08 12:00N 35°36' E 140°07'0 0.0
2017-Dec-08 11:30N 35°36' E 140°07'0 0.0
2017-Dec-08 11:00N 35°36' E 140°07'1 2.0
2017-Dec-08 10:31N 35°36' E 140°06'0 0.8
2017-Dec-08 10:00N 35°36' E 140°05'3 6.6
2017-Dec-08 09:30N 35°34' E 140°02'4 2.8
2017-Dec-08 08:05N 35°32' E 139°58'0 0.0
2017-Dec-08 07:56N 35°32' E 139°58'511.0
2017-Dec-08 07:30N 35°34' E 140°02'4 7.9
2017-Dec-08 07:00N 35°36' E 140°07'0 0.0
2017-Dec-08 06:30N 35°36' E 140°07'0 0.0
2017-Dec-08 06:00N 35°36' E 140°07'0 0.0
2017-Dec-08 05:30N 35°36' E 140°07'0 0.0
2017-Dec-08 05:00N 35°36' E 140°07'0 0.0
2017-Dec-08 04:30N 35°36' E 140°07'0 0.0
2017-Dec-08 04:00N 35°36' E 140°07'0 0.0
2017-Dec-08 03:30N 35°36' E 140°07'0 0.0
2017-Dec-08 03:00N 35°36' E 140°07'0 0.0
2017-Dec-08 02:30N 35°36' E 140°07'0 0.0
2017-Dec-08 02:00N 35°36' E 140°07'0 0.0
2017-Dec-08 01:30N 35°36' E 140°07'0 0.0
2017-Dec-08 01:00N 35°36' E 140°07'0 0.0
2017-Dec-08 00:30N 35°36' E 140°07'0 0.0
2017-Dec-08 00:00N 35°36' E 140°07'1 1.9
2017-Dec-07 23:30N 35°35' E 140°06'0 0.1
2017-Dec-07 23:00N 35°35' E 140°06'0 0.7
2017-Dec-07 22:30N 35°35' E 140°06'2 4.8
2017-Dec-07 22:00N 35°35' E 140°03'1 1.6
2017-Dec-07 21:30N 35°35' E 140°03'0 0.1
2017-Dec-07 21:00N 35°35' E 140°03'0 0.0
2017-Dec-07 20:30N 35°35' E 140°03'0 0.0
2017-Dec-07 20:00N 35°35' E 140°03'3 6.8
2017-Dec-07 19:30N 35°36' E 140°07'0 0.5
2017-Dec-07 19:01N 35°36' E 140°07'0 0.0
2017-Dec-07 18:30N 35°36' E 140°07'0 0.0
2017-Dec-07 18:01N 35°36' E 140°07'0 0.0
2017-Dec-07 17:31N 35°36' E 140°07'0 0.0
2017-Dec-07 17:01N 35°36' E 140°07'0 0.0
2017-Dec-07 16:31N 35°36' E 140°07'0 0.0
2017-Dec-07 16:01N 35°36' E 140°07'0 0.0
2017-Dec-07 15:31N 35°36' E 140°07'0 0.0
2017-Dec-07 15:01N 35°36' E 140°07'0 0.0
2017-Dec-07 14:31N 35°36' E 140°07'0 0.0
2017-Dec-07 14:01N 35°36' E 140°07'0 0.0
2017-Dec-07 13:30N 35°36' E 140°07'0 0.0
2017-Dec-07 13:00N 35°36' E 140°07'0 0.0
2017-Dec-07 12:30N 35°36' E 140°07'0 0.0
2017-Dec-07 12:00N 35°36' E 140°07'0 0.0
2017-Dec-07 11:30N 35°36' E 140°07'0 0.0
2017-Dec-07 11:00N 35°36' E 140°07'0 0.0
2017-Dec-07 10:30N 35°36' E 140°07'0 0.0
2017-Dec-07 10:01N 35°36' E 140°07'0 0.0
2017-Dec-07 09:31N 35°36' E 140°07'0 0.0
2017-Dec-07 09:01N 35°36' E 140°07'0 0.0
2017-Dec-07 08:31N 35°36' E 140°07'0 0.0
2017-Dec-07 08:01N 35°36' E 140°07'0 0.0
2017-Dec-07 07:30N 35°36' E 140°07'3 5.2
2017-Dec-07 07:01N 35°35' E 140°04'713.0
2017-Dec-07 06:30N 35°30' E 139°59'2 3.9
2017-Dec-07 06:00N 35°28' E 139°58'0 0.3
2017-Dec-07 05:30N 35°28' E 139°58'1 2.3
2017-Dec-07 05:00N 35°29' E 139°57'0 0.6
2017-Dec-07 04:30N 35°29' E 139°57'0 0.0
2017-Dec-07 04:00N 35°29' E 139°57'0 0.0
2017-Dec-07 03:30N 35°29' E 139°57'0 0.0
2017-Dec-07 03:00N 35°29' E 139°57'0 0.0
2017-Dec-07 02:30N 35°29' E 139°57'0 0.0
2017-Dec-07 02:00N 35°29' E 139°57'0 0.0
2017-Dec-07 01:30N 35°29' E 139°57'0 0.0
2017-Dec-07 01:00N 35°29' E 139°57'4 5.7
2017-Dec-07 00:22N 35°30' E 140°01'0 0.1
2017-Dec-06 23:58N 35°30' E 140°01'0 1.1
2017-Dec-06 23:30N 35°30' E 140°01'1 2.0
2017-Dec-06 22:59N 35°31' E 140°00'0 0.3
2017-Dec-06 22:30N 35°31' E 140°00'0 0.0
2017-Dec-06 22:00N 35°31' E 140°00'0 0.1
2017-Dec-06 21:30N 35°31' E 140°00'611.3
2017-Dec-06 21:00N 35°35' E 140°04'  
2017-Dec-04 10:31N 35°36' E 140°07'0 0.0
2017-Dec-04 10:01N 35°36' E 140°07'0 0.0
2017-Dec-04 09:30N 35°36' E 140°07'0 0.0
2017-Dec-04 09:01N 35°36' E 140°07'0 0.0
2017-Dec-04 08:30N 35°36' E 140°07'0 0.0
2017-Dec-04 08:01N 35°36' E 140°07'3 6.5
2017-Dec-04 07:30N 35°34' E 140°04'5 9.0
2017-Dec-04 07:00N 35°30' E 140°02'0 0.0
2017-Dec-04 06:28N 35°30' E 140°02'0 0.0
2017-Dec-04 05:58N 35°30' E 140°02'0 0.5
2017-Dec-04 05:30N 35°30' E 140°01'2 3.5
2017-Dec-04 05:00N 35°31' E 139°60'3 6.8
2017-Dec-04 04:30N 35°34' E 139°57'0 0.2
2017-Dec-04 04:00N 35°34' E 139°57'3 5.5
2017-Dec-04 03:30N 35°35' E 140°00'611.0
2017-Dec-04 03:01N 35°36' E 140°07'0 0.1
2017-Dec-04 02:31N 35°36' E 140°07'0 0.0
2017-Dec-04 02:00N 35°36' E 140°07'0 0.0
2017-Dec-04 01:31N 35°36' E 140°07'0 0.0
2017-Dec-04 01:00N 35°36' E 140°07'0 0.0
2017-Dec-04 00:31N 35°36' E 140°07'0 0.0
2017-Dec-04 00:00N 35°36' E 140°07'0 0.0
2017-Dec-03 23:30N 35°36' E 140°07'0 0.2
2017-Dec-03 23:01N 35°36' E 140°07'1 2.1
2017-Dec-03 22:30N 35°36' E 140°06'1 2.7
2017-Dec-03 22:00N 35°35' E 140°04'0 0.9
2017-Dec-03 21:30N 35°36' E 140°04'0 0.0
2017-Dec-03 21:00N 35°36' E 140°04'0 0.0
2017-Dec-03 20:30N 35°36' E 140°04'2 4.4
2017-Dec-03 20:00N 35°36' E 140°06'1 1.0
2017-Dec-03 19:30N 35°36' E 140°07'0 0.0
2017-Dec-03 19:01N 35°36' E 140°07'0 0.0
2017-Dec-03 18:31N 35°36' E 140°07'0 0.0
2017-Dec-03 18:00N 35°36' E 140°07'0 0.0
2017-Dec-03 17:31N 35°36' E 140°07'0 0.0
2017-Dec-03 17:00N 35°36' E 140°07'0 0.0
2017-Dec-03 16:30N 35°36' E 140°07'0 0.0
2017-Dec-03 16:00N 35°36' E 140°07'0 0.0
2017-Dec-03 15:31N 35°36' E 140°07'0 0.0
2017-Dec-03 15:00N 35°36' E 140°07'0 0.0
2017-Dec-03 14:31N 35°36' E 140°07'0 0.0
2017-Dec-03 14:00N 35°36' E 140°07'0 0.0
2017-Dec-03 13:30N 35°36' E 140°07'0 0.0
2017-Dec-03 13:01N 35°36' E 140°07'0 0.0
2017-Dec-03 12:30N 35°36' E 140°07'0 0.0
2017-Dec-03 12:01N 35°36' E 140°07'0 0.0
2017-Dec-03 11:27N 35°36' E 140°07'0 0.0
2017-Dec-03 11:00N 35°36' E 140°07'0 0.0
2017-Dec-03 10:30N 35°36' E 140°07'0 0.0
2017-Dec-03 10:01N 35°36' E 140°07'0 0.0
2017-Dec-03 09:31N 35°36' E 140°07'0 0.0
2017-Dec-03 09:01N 35°36' E 140°07'0 0.0
2017-Dec-03 08:30N 35°36' E 140°07'0 0.0
2017-Dec-03 08:01N 35°36' E 140°07'0 0.0
2017-Dec-03 07:31N 35°36' E 140°07'0 0.0
2017-Dec-03 07:00N 35°36' E 140°07'0 0.0
2017-Dec-03 06:31N 35°36' E 140°07'0 0.0
2017-Dec-03 06:00N 35°36' E 140°07'4 8.4
2017-Dec-03 05:31N 35°33' E 140°03'4 6.9
2017-Dec-03 04:59N 35°30' E 140°01'0 0.0
2017-Dec-03 04:30N 35°30' E 140°01'0 0.2
2017-Dec-03 04:00N 35°30' E 140°01'1 2.2
2017-Dec-03 03:30N 35°31' E 140°00'4 6.5
2017-Dec-03 02:58N 35°33' E 139°57'3 3.6
2017-Dec-03 02:01N 35°35' E 140°00'011.9
2017-Dec-03 02:00N 35°35' E 140°01'510.4
2017-Dec-03 01:30N 35°36' E 140°07'0 0.0
2017-Dec-03 01:00N 35°36' E 140°07'0 0.0
2017-Dec-03 00:30N 35°36' E 140°07'0 0.0
2017-Dec-03 00:00N 35°36' E 140°07'0 0.0
2017-Dec-02 23:30N 35°36' E 140°07'0 0.0
2017-Dec-02 23:00N 35°36' E 140°07'0 0.0
2017-Dec-02 22:30N 35°36' E 140°07'0 0.0
2017-Dec-02 22:00N 35°36' E 140°07'0 0.0
2017-Dec-02 21:30N 35°36' E 140°07'0 0.0
2017-Dec-02 21:00N 35°36' E 140°07'0 0.0
2017-Dec-02 20:30N 35°36' E 140°07'0 0.0
2017-Dec-02 20:00N 35°36' E 140°07'0 0.0
2017-Dec-02 19:30N 35°36' E 140°07'0 0.0
2017-Dec-02 19:00N 35°36' E 140°07'0 0.0
2017-Dec-02 18:30N 35°36' E 140°07'0 0.0
2017-Dec-02 18:00N 35°36' E 140°07'0 0.0
2017-Dec-02 17:30N 35°36' E 140°07'0 0.0
2017-Dec-02 17:00N 35°36' E 140°07'0 0.0
2017-Dec-02 16:31N 35°36' E 140°07'0 0.0
2017-Dec-02 16:01N 35°36' E 140°07'0 0.0
2017-Dec-02 15:30N 35°36' E 140°07'0 0.0
2017-Dec-02 15:00N 35°36' E 140°07'0 0.0
2017-Dec-02 14:30N 35°36' E 140°07'0 0.0
2017-Dec-02 14:01N 35°36' E 140°07'0 0.0
2017-Dec-02 13:30N 35°36' E 140°07'0 0.0
2017-Dec-02 13:00N 35°36' E 140°07'0 0.0
2017-Dec-02 12:31N 35°36' E 140°07'0 0.0
2017-Dec-02 12:00N 35°36' E 140°07'0 0.0
2017-Dec-02 11:30N 35°36' E 140°07'0 0.0
2017-Dec-02 11:01N 35°36' E 140°07'0 0.2
2017-Dec-02 10:30N 35°36' E 140°07'1 2.2
2017-Dec-02 10:00N 35°36' E 140°06'1 1.6
2017-Dec-02 09:30N 35°35' E 140°05'4 8.3
2017-Dec-02 09:00N 35°33' E 140°00'3 6.2
2017-Dec-02 08:30N 35°31' E 139°57'0 0.0
2017-Dec-02 07:59N 35°31' E 139°57'0 0.9
2017-Dec-02 07:30N 35°32' E 139°58'611.1
2017-Dec-02 07:00N 35°33' E 140°04'1 2.2
2017-Dec-02 06:28N 35°32' E 140°05'3 6.0
2017-Dec-02 06:00N 35°32' E 140°02'2 3.8
2017-Dec-02 05:25N 35°30' E 140°02'1 1.3
2017-Dec-02 04:58N 35°30' E 140°01'1 2.2
2017-Dec-02 04:30N 35°31' E 140°00'3 5.3
2017-Dec-02 04:00N 35°33' E 140°02'5 9.1
2017-Dec-02 03:30N 35°36' E 140°07'0 0.2
2017-Dec-02 03:00N 35°36' E 140°07'0 0.0
2017-Dec-02 02:30N 35°36' E 140°07'0 0.0
2017-Dec-02 02:00N 35°36' E 140°07'0 0.0
2017-Dec-02 01:30N 35°36' E 140°07'0 0.0
2017-Dec-02 01:00N 35°36' E 140°07'0 0.0
2017-Dec-02 00:30N 35°36' E 140°07'0 0.0
2017-Dec-02 00:00N 35°36' E 140°07'0 0.5
2017-Dec-01 23:30N 35°36' E 140°07'0 0.9
2017-Dec-01 23:00N 35°35' E 140°06'3 5.0
2017-Dec-01 22:30N 35°35' E 140°03'3 5.2
2017-Dec-01 22:00N 35°34' E 140°00'1 2.2
2017-Dec-01 21:30N 35°35' E 140°02'5 9.3
2017-Dec-01 21:01N 35°36' E 140°07'0 0.2
2017-Dec-01 20:30N 35°36' E 140°07'0 0.0
2017-Dec-01 20:01N 35°36' E 140°07'0 0.0
2017-Dec-01 19:30N 35°36' E 140°07'0 0.0
2017-Dec-01 19:00N 35°36' E 140°07'0 0.0
2017-Dec-01 18:30N 35°36' E 140°07'0 0.0
2017-Dec-01 18:00N 35°36' E 140°07'0 0.0
2017-Dec-01 17:30N 35°36' E 140°07'0 0.0
2017-Dec-01 17:01N 35°36' E 140°07'  

Dump ship's entire track history